Terminal Aerodrome Forecast
Issued by NWS

Home | Current Version | Previous Version | Text Only | Print | Product List | Glossary On
Versions: 1 2 3 4 5 6 7 8 9 10 11 12
000
FTUS41 KPHI 311720
TAFPNE
TAF
KPNE 311720Z 3118/0118 25005KT P6SM VCSH FEW050 BKN150
     FM311900 27008G15KT P6SM VCSH SCT050 BKN150
     FM312300 27006KT P6SM SCT050
     FM011200 34005KT P6SM SKC=

USA.gov is the U.S. government's official web portal to all federal, state and local government web resources and services.